createdAt,value
2022-10-18T00:02:14.050Z,102214.84
2022-10-18T00:04:40.605Z,102200.75
2022-10-18T00:07:07.642Z,102210.31
2022-10-18T00:09:34.271Z,102213.16
2022-10-18T00:12:00.899Z,102223.13
2022-10-18T00:14:27.489Z,102213.16
2022-10-18T00:16:54.220Z,102215.16
2022-10-18T00:19:20.841Z,102201.13
2022-10-18T00:21:51.434Z,102200.00
2022-10-18T00:24:18.128Z,102215.94
2022-10-18T00:26:44.733Z,102210.38
2022-10-18T00:29:14.884Z,102204.53
2022-10-18T00:31:43.435Z,102211.63
2022-10-18T00:34:12.981Z,102201.09
2022-10-18T00:36:39.975Z,102194.25
2022-10-18T00:39:07.854Z,102191.41
2022-10-18T00:41:36.458Z,102201.53
2022-10-18T00:44:13.597Z,102203.38
2022-10-18T00:46:42.864Z,102187.09
2022-10-18T00:49:35.619Z,102186.84
2022-10-18T00:52:11.003Z,102191.97
2022-10-18T00:54:40.771Z,102186.97
2022-10-18T00:57:08.206Z,102187.81
2022-10-18T00:59:36.061Z,102173.09
2022-10-18T01:02:03.506Z,102187.97
2022-10-18T01:04:30.211Z,102168.81
2022-10-18T01:07:27.778Z,102189.41
2022-10-18T01:10:26.968Z,102183.13
2022-10-18T01:13:25.971Z,102177.41
2022-10-18T01:16:01.995Z,102177.34
2022-10-18T01:18:48.675Z,102177.88
2022-10-18T01:21:40.684Z,102184.44
2022-10-18T01:24:41.299Z,102181.41
2022-10-18T01:27:40.615Z,102175.56
2022-10-18T01:30:37.930Z,102179.25
2022-10-18T01:33:10.294Z,102170.16
2022-10-18T01:35:45.591Z,102173.00
2022-10-18T01:38:17.946Z,102164.56
2022-10-18T01:40:47.869Z,102160.13
2022-10-18T01:43:16.633Z,102156.69
2022-10-18T01:45:43.170Z,102167.69
2022-10-18T01:48:11.703Z,102160.13
2022-10-18T01:50:38.332Z,102162.81
2022-10-18T01:53:04.859Z,102156.44
2022-10-18T01:55:42.678Z,102168.13
2022-10-18T01:58:29.513Z,102135.75
2022-10-18T02:01:08.603Z,102141.31
2022-10-18T02:03:40.925Z,102147.31
2022-10-18T02:06:22.996Z,102153.03
2022-10-18T02:08:56.841Z,102140.38
2022-10-18T02:11:23.665Z,102144.66
2022-10-18T02:13:53.363Z,102128.84
2022-10-18T02:16:40.571Z,102136.41
2022-10-18T02:19:20.786Z,102137.28
2022-10-18T02:21:50.055Z,102147.09
2022-10-18T02:24:19.530Z,102146.94
2022-10-18T02:26:46.135Z,102141.97
2022-10-18T02:29:13.134Z,102134.25
2022-10-18T02:31:53.010Z,102138.66
2022-10-18T02:34:27.695Z,102131.38
2022-10-18T02:36:59.000Z,102132.34
2022-10-18T02:39:32.846Z,102122.50
2022-10-18T02:42:00.033Z,102126.75
2022-10-18T02:44:26.912Z,102112.81
2022-10-18T02:46:53.743Z,102120.50
2022-10-18T02:49:20.382Z,102118.78
2022-10-18T02:51:46.958Z,102115.19
2022-10-18T02:54:13.568Z,102103.59
2022-10-18T02:56:40.278Z,102124.69
2022-10-18T02:59:07.486Z,102111.00
2022-10-18T03:01:36.301Z,102119.84
2022-10-18T03:04:03.890Z,102119.09
2022-10-18T03:06:30.797Z,102124.53
2022-10-18T03:08:57.621Z,102124.78
2022-10-18T03:11:24.323Z,102118.63
2022-10-18T03:13:51.142Z,102115.22
2022-10-18T03:16:17.758Z,102113.53
2022-10-18T03:18:44.461Z,102088.28
2022-10-18T03:21:11.022Z,102116.47
2022-10-18T03:23:37.685Z,102107.31
2022-10-18T03:26:04.492Z,102106.91
2022-10-18T03:28:31.326Z,102103.50
2022-10-18T03:31:02.506Z,102103.78
2022-10-18T03:33:29.235Z,102103.31
2022-10-18T03:35:55.897Z,102107.44
2022-10-18T03:38:22.482Z,102113.72
2022-10-18T03:40:49.131Z,102113.97
2022-10-18T03:43:15.802Z,102120.97
2022-10-18T03:45:42.653Z,102118.16
2022-10-18T03:48:09.175Z,102118.44
2022-10-18T03:50:35.797Z,102110.59
2022-10-18T03:53:02.543Z,102108.88
2022-10-18T03:55:29.215Z,102108.63
2022-10-18T03:57:55.801Z,102113.44
2022-10-18T04:00:22.921Z,102104.47
2022-10-18T04:02:52.069Z,102115.47
2022-10-18T04:05:24.408Z,102110.34
2022-10-18T04:07:51.007Z,102108.75
2022-10-18T04:10:18.900Z,102099.56
2022-10-18T04:12:45.573Z,102114.53
2022-10-18T04:15:12.388Z,102117.97
2022-10-18T04:17:38.972Z,102094.56
2022-10-18T04:20:06.749Z,102113.81
2022-10-18T04:22:33.373Z,102103.78
2022-10-18T04:24:59.924Z,102107.94
2022-10-18T04:27:26.563Z,102118.72
2022-10-18T04:29:53.190Z,102112.88
2022-10-18T04:32:19.748Z,102116.53
2022-10-18T04:34:46.363Z,102114.25
2022-10-18T04:37:12.958Z,102106.25
2022-10-18T04:39:39.522Z,102075.31
2022-10-18T04:42:06.107Z,102100.13
2022-10-18T04:44:32.663Z,102105.28
2022-10-18T04:46:59.262Z,102098.88
2022-10-18T04:49:25.842Z,102103.19
2022-10-18T04:51:52.429Z,102100.41
2022-10-18T04:54:19.016Z,102084.97
2022-10-18T04:56:45.597Z,102099.94
2022-10-18T04:59:12.700Z,102108.03
2022-10-18T05:01:39.471Z,102091.09
2022-10-18T05:04:06.113Z,102097.13
2022-10-18T05:06:32.649Z,102104.56
2022-10-18T05:08:59.210Z,102097.56
2022-10-18T05:11:25.830Z,102096.47
2022-10-18T05:13:52.413Z,102090.78
2022-10-18T05:16:19.019Z,102101.03
2022-10-18T05:18:45.782Z,102093.50
2022-10-18T05:21:13.610Z,102100.13
2022-10-18T05:23:40.139Z,102090.81
2022-10-18T05:26:07.635Z,102108.13
2022-10-18T05:28:39.568Z,102118.06
2022-10-18T05:31:09.858Z,102109.56
2022-10-18T05:33:36.966Z,102098.66
2022-10-18T05:36:04.516Z,102106.41
2022-10-18T05:38:31.453Z,102104.16
2022-10-18T05:40:59.087Z,102108.31
2022-10-18T05:43:29.679Z,102118.75
2022-10-18T05:45:56.517Z,102116.75
2022-10-18T05:48:23.206Z,102111.34
2022-10-18T05:50:49.758Z,102114.66
2022-10-18T05:53:35.760Z,102113.38
2022-10-18T05:56:03.858Z,102122.41
2022-10-18T05:58:30.462Z,102124.88
2022-10-18T06:01:05.344Z,102131.19
2022-10-18T06:03:32.638Z,102135.34
2022-10-18T06:06:10.180Z,102137.94
2022-10-18T06:08:37.607Z,102130.16
2022-10-18T06:11:13.958Z,102126.75
2022-10-18T06:13:46.324Z,102138.06
2022-10-18T06:16:14.985Z,102144.22
2022-10-18T06:18:42.095Z,102132.59
2022-10-18T06:21:09.606Z,102130.50
2022-10-18T06:23:36.204Z,102135.84
2022-10-18T06:26:04.979Z,102128.31
2022-10-18T06:28:31.422Z,102134.91
2022-10-18T06:30:58.366Z,102137.00
2022-10-18T06:33:25.521Z,102137.13
2022-10-18T06:36:00.380Z,102134.88
2022-10-18T06:38:27.957Z,102140.13
2022-10-18T06:40:55.636Z,102151.53
2022-10-18T06:43:22.328Z,102136.06
2022-10-18T06:45:49.452Z,102139.78
2022-10-18T06:48:16.671Z,102143.78
2022-10-18T06:50:50.304Z,102152.78
2022-10-18T06:53:17.139Z,102147.66
2022-10-18T06:55:43.839Z,102150.59
2022-10-18T06:58:10.434Z,102152.47
2022-10-18T07:00:36.989Z,102142.88
2022-10-18T07:03:03.622Z,102146.06
2022-10-18T07:07:58.358Z,102147.38
2022-10-18T07:10:25.406Z,102155.94
2022-10-18T07:12:59.240Z,102163.69
2022-10-18T07:15:38.569Z,102154.50
2022-10-18T07:18:05.651Z,102165.13
2022-10-18T07:20:32.256Z,102159.28
2022-10-18T07:22:59.172Z,102159.75
2022-10-18T07:25:28.407Z,102158.75
2022-10-18T07:27:57.420Z,102152.38
2022-10-18T07:30:24.024Z,102161.03
2022-10-18T07:32:51.870Z,102160.09
2022-10-18T07:35:18.522Z,102163.84
2022-10-18T07:37:45.111Z,102159.56
2022-10-18T07:40:12.212Z,102154.97
2022-10-18T07:42:38.867Z,102162.56
2022-10-18T07:45:05.751Z,102154.69
2022-10-18T07:47:35.115Z,102145.66
2022-10-18T07:50:02.078Z,102146.38
2022-10-18T07:52:28.645Z,102167.47
2022-10-18T07:54:55.218Z,102159.47
2022-10-18T07:57:40.488Z,102157.44
2022-10-18T08:00:09.018Z,102152.38
2022-10-18T08:02:35.608Z,102148.84
2022-10-18T08:05:02.176Z,102163.19
2022-10-18T08:07:28.889Z,102151.63
2022-10-18T08:09:55.773Z,102153.25
2022-10-18T08:12:23.112Z,102168.56
2022-10-18T08:14:49.657Z,102162.72
2022-10-18T08:17:16.233Z,102160.16
2022-10-18T08:19:52.793Z,102160.16
2022-10-18T08:22:29.305Z,102163.13
2022-10-18T08:24:56.056Z,102156.75
2022-10-18T08:27:26.055Z,102160.13
2022-10-18T08:29:53.003Z,102168.19
2022-10-18T08:32:19.569Z,102167.72
2022-10-18T08:34:46.133Z,102178.75
2022-10-18T08:37:12.896Z,102172.44
2022-10-18T08:39:39.436Z,102167.50
2022-10-18T08:42:17.858Z,102170.22
2022-10-18T08:44:47.949Z,102156.50
2022-10-18T08:47:52.021Z,102163.94
2022-10-18T12:03:14.398Z,101920.38
2022-10-18T12:05:44.693Z,101910.72
2022-10-18T12:08:14.253Z,101900.56
2022-10-18T12:11:04.051Z,101893.25
2022-10-18T12:13:56.943Z,101899.63
2022-10-18T12:16:49.523Z,101889.00
2022-10-18T12:19:23.712Z,101883.38
2022-10-18T12:21:56.422Z,101866.88
2022-10-18T12:24:28.639Z,101872.69
2022-10-18T12:26:59.729Z,101877.44
2022-10-18T12:29:30.158Z,101876.66
2022-10-18T12:32:07.140Z,101862.72
2022-10-18T12:34:43.926Z,101865.81
2022-10-18T12:37:45.255Z,101868.78
2022-10-18T12:40:21.458Z,101861.00
2022-10-18T12:42:50.913Z,101850.88
2022-10-18T12:45:23.138Z,101853.25
2022-10-18T12:47:50.262Z,101851.56
2022-10-18T12:50:37.233Z,101846.09
2022-10-18T12:53:28.015Z,101847.94
2022-10-18T12:55:55.860Z,101847.88
2022-10-18T12:58:32.096Z,101850.94
2022-10-18T13:01:02.279Z,101840.13
2022-10-18T13:03:39.543Z,101845.94
2022-10-18T13:06:06.940Z,101837.44
2022-10-18T13:08:42.169Z,101840.22
2022-10-18T13:11:08.938Z,101832.84
2022-10-18T13:14:17.019Z,101835.34
2022-10-18T13:17:28.172Z,101836.75
2022-10-18T13:20:26.113Z,101819.34
2022-10-18T13:23:02.365Z,101825.31
2022-10-18T13:25:41.223Z,101816.19
2022-10-18T13:28:38.541Z,101817.41
2022-10-18T13:31:29.986Z,101813.81
2022-10-18T13:34:25.246Z,101811.75
2022-10-18T13:37:03.685Z,101802.00
2022-10-18T13:39:31.595Z,101817.47
2022-10-18T13:41:58.243Z,101803.31
2022-10-18T13:44:37.346Z,101794.94
2022-10-18T13:47:04.003Z,101802.16
2022-10-18T13:49:48.332Z,101799.66
2022-10-18T13:52:20.809Z,101803.63
2022-10-18T13:55:14.965Z,101799.97
2022-10-18T13:57:47.360Z,101788.63
2022-10-18T14:00:35.679Z,101794.81
2022-10-18T14:03:37.525Z,101795.94
2022-10-18T14:06:06.792Z,101789.41
2022-10-18T14:09:25.591Z,101795.16
2022-10-18T14:12:19.092Z,101792.22
2022-10-18T14:15:08.435Z,101789.97
2022-10-18T14:17:46.510Z,101786.50
2022-10-18T14:20:29.358Z,101785.81
2022-10-18T14:23:18.842Z,101787.78
2022-10-18T14:25:45.919Z,101780.63
2022-10-18T14:28:16.674Z,101780.16
2022-10-18T14:31:06.324Z,101786.34
2022-10-18T14:33:32.919Z,101779.31
2022-10-18T14:36:03.874Z,101778.69
2022-10-18T14:38:30.926Z,101786.78
2022-10-18T14:41:22.298Z,101780.69
2022-10-18T14:43:49.959Z,101777.97
2022-10-18T14:46:28.969Z,101772.91
2022-10-18T14:49:04.328Z,101765.03
2022-10-18T14:51:35.475Z,101758.34
2022-10-18T14:54:02.887Z,101763.06
2022-10-18T14:56:31.966Z,101762.00
2022-10-18T14:59:02.143Z,101758.63
2022-10-18T15:01:32.064Z,101758.00
2022-10-18T15:04:11.688Z,101758.88
2022-10-18T15:06:43.802Z,101756.78
2022-10-18T15:09:12.603Z,101754.50
2022-10-18T15:11:41.465Z,101761.06
2022-10-18T15:14:14.434Z,101761.75
2022-10-18T15:16:41.406Z,101756.44
2022-10-18T15:19:14.140Z,101755.81
2022-10-18T15:25:06.057Z,101756.47
2022-10-18T15:27:37.011Z,101758.59
2022-10-18T15:30:22.854Z,101752.06
2022-10-18T15:32:57.982Z,101746.34
2022-10-18T15:35:32.886Z,101736.63
2022-10-18T15:38:04.752Z,101746.38
2022-10-18T15:40:35.268Z,101743.00
2022-10-18T15:43:06.037Z,101737.25
2022-10-18T15:45:45.452Z,101735.38
2022-10-18T15:48:15.024Z,101736.84
2022-10-18T15:50:44.258Z,101740.03
2022-10-18T15:53:23.076Z,101732.00
2022-10-18T15:56:08.152Z,101734.09
2022-10-18T15:58:46.415Z,101727.94
2022-10-18T16:01:32.518Z,101730.50
2022-10-18T16:04:01.207Z,101720.75
2022-10-18T16:06:27.873Z,101725.38
2022-10-18T16:08:54.585Z,101727.22
2022-10-18T16:11:25.848Z,101725.53
2022-10-18T16:13:55.245Z,101724.63
2022-10-18T16:16:27.366Z,101724.81
2022-10-18T16:18:54.568Z,101718.84
2022-10-18T16:21:26.399Z,101728.97
2022-10-18T16:23:53.437Z,101725.34
2022-10-18T16:26:21.286Z,101735.66
2022-10-18T16:28:48.615Z,101729.84
2022-10-18T16:31:21.749Z,101733.16
2022-10-18T16:33:49.449Z,101721.72
2022-10-18T16:36:20.399Z,101730.50
2022-10-18T16:38:48.051Z,101728.50
2022-10-18T16:41:15.936Z,101734.75
2022-10-18T16:43:44.447Z,101740.53
2022-10-18T16:46:16.755Z,101739.81
2022-10-18T16:48:44.329Z,101740.34
2022-10-18T16:51:12.935Z,101751.63
2022-10-18T16:53:39.517Z,101751.69
2022-10-18T16:56:13.433Z,101748.63
2022-10-18T16:58:40.114Z,101753.53
2022-10-18T17:01:08.963Z,101750.81
2022-10-18T17:03:36.167Z,101747.34
2022-10-18T17:06:03.151Z,101762.94
2022-10-18T17:08:29.785Z,101758.50
2022-10-18T17:10:58.699Z,101767.69
2022-10-18T17:13:26.446Z,101768.25
2022-10-18T17:15:53.713Z,101773.13
2022-10-18T17:18:28.044Z,101771.06
2022-10-18T17:20:55.272Z,101761.50
2022-10-18T17:23:22.045Z,101769.16
2022-10-18T17:26:04.718Z,101752.56
2022-10-18T17:28:33.851Z,101769.44
2022-10-18T17:31:00.456Z,101768.78
2022-10-18T17:33:27.017Z,101765.91
2022-10-18T17:35:53.730Z,101775.84
2022-10-18T17:38:20.301Z,101767.19
2022-10-18T17:40:46.846Z,101757.72
2022-10-18T17:43:13.957Z,101758.72
2022-10-18T17:45:48.979Z,101769.44
2022-10-18T17:48:15.535Z,101773.41
2022-10-18T17:50:42.394Z,101776.28
2022-10-18T17:53:10.753Z,101779.91
2022-10-18T17:55:37.417Z,101774.31
2022-10-18T17:58:04.028Z,101783.38
2022-10-18T18:00:30.682Z,101778.84
2022-10-18T18:03:00.744Z,101767.28
2022-10-18T18:05:32.957Z,101783.31
2022-10-18T18:08:03.750Z,101784.81
2022-10-18T18:10:33.136Z,101771.75
2022-10-18T18:13:00.209Z,101778.75
2022-10-18T18:15:26.908Z,101773.13
2022-10-18T18:17:57.094Z,101788.25
2022-10-18T18:20:24.803Z,101789.78
2022-10-18T18:22:51.958Z,101779.22
2022-10-18T18:25:18.710Z,101791.84
2022-10-18T18:27:45.320Z,101776.88
2022-10-18T18:30:12.117Z,101786.03
2022-10-18T18:32:38.772Z,101778.56
2022-10-18T18:35:05.723Z,101789.94
2022-10-18T18:37:32.419Z,101786.41
2022-10-18T18:39:58.951Z,101779.44
2022-10-18T18:42:25.470Z,101785.19
2022-10-18T18:44:52.047Z,101789.81
2022-10-18T18:47:21.528Z,101776.22
2022-10-18T18:49:48.561Z,101776.88
2022-10-18T18:52:15.224Z,101790.47
2022-10-18T18:54:41.767Z,101783.00
2022-10-18T18:57:08.625Z,101780.28
2022-10-18T18:59:35.364Z,101776.88
2022-10-18T19:02:01.956Z,101768.38
2022-10-18T19:04:29.288Z,101770.94
2022-10-18T19:06:55.924Z,101768.56
2022-10-18T19:09:23.039Z,101767.03
2022-10-18T19:11:55.413Z,101779.59
2022-10-18T19:14:24.175Z,101776.56
2022-10-18T19:16:53.720Z,101779.44
2022-10-18T19:19:21.505Z,101787.63
2022-10-18T19:21:51.739Z,101774.00
2022-10-18T19:24:19.980Z,101768.16
2022-10-18T19:26:55.897Z,101761.66
2022-10-18T19:29:34.894Z,101770.84
2022-10-18T19:32:04.842Z,101776.31
2022-10-18T19:34:32.497Z,101761.50
2022-10-18T19:36:59.252Z,101760.63
2022-10-18T19:39:28.211Z,101780.84
2022-10-18T19:41:57.677Z,101766.72
2022-10-18T19:44:27.752Z,101788.81
2022-10-18T19:46:55.195Z,101775.41
2022-10-18T19:49:22.208Z,101770.47
2022-10-18T19:51:49.237Z,101776.44
2022-10-18T19:54:16.529Z,101783.91
2022-10-18T19:56:44.160Z,101778.97
2022-10-18T19:59:12.077Z,101774.88
2022-10-18T20:01:39.427Z,101785.41
2022-10-18T20:04:08.363Z,101776.03
2022-10-18T20:06:41.760Z,101785.22
2022-10-18T20:09:12.393Z,101785.53
2022-10-18T20:11:44.554Z,101777.75
2022-10-18T20:14:11.635Z,101763.44
2022-10-18T20:16:41.399Z,101790.28
2022-10-18T20:19:08.132Z,101783.16
2022-10-18T20:21:36.325Z,101784.84
2022-10-18T20:24:07.288Z,101774.63
2022-10-18T20:26:35.888Z,101783.00
2022-10-18T20:29:02.632Z,101781.78
2022-10-18T20:31:38.918Z,101784.34
2022-10-18T20:34:12.117Z,101786.69
2022-10-18T20:36:39.612Z,101777.31
2022-10-18T20:39:06.799Z,101782.91
2022-10-18T20:41:37.994Z,101801.41
2022-10-18T20:44:10.707Z,101794.59
2022-10-18T20:46:39.002Z,101770.44
2022-10-18T20:49:07.857Z,101788.97
2022-10-18T20:51:35.199Z,101784.72
2022-10-18T20:56:34.229Z,101787.06
2022-10-18T20:59:01.529Z,101787.41
2022-10-18T21:01:30.693Z,101773.03
2022-10-18T21:04:00.265Z,101781.41
2022-10-18T21:06:28.206Z,101785.28
2022-10-18T21:08:57.871Z,101780.03
2022-10-18T21:11:25.179Z,101775.75
2022-10-18T21:13:58.911Z,101774.03
2022-10-18T21:16:26.545Z,101775.94
2022-10-18T21:18:53.677Z,101772.34
2022-10-18T21:21:23.111Z,101773.22
2022-10-18T21:23:50.514Z,101775.94
2022-10-18T21:26:26.023Z,101777.09
2022-10-18T21:28:54.517Z,101780.69
2022-10-18T21:31:23.917Z,101772.66
2022-10-18T21:33:56.283Z,101770.47
2022-10-18T21:36:24.017Z,101765.16
2022-10-18T21:38:53.755Z,101761.63
2022-10-18T21:41:22.620Z,101768.56
2022-10-18T21:43:55.373Z,101759.72
2022-10-18T21:46:23.912Z,101759.72
2022-10-18T21:48:52.681Z,101757.34
2022-10-18T21:51:20.720Z,101767.88
2022-10-18T21:53:49.832Z,101761.22
2022-10-18T21:56:21.376Z,101757.13
2022-10-18T21:58:48.723Z,101744.69
2022-10-18T22:01:32.139Z,101756.22
2022-10-18T22:04:04.358Z,101743.63
2022-10-18T22:06:40.559Z,101749.88
2022-10-18T22:09:08.437Z,101751.38
2022-10-18T22:11:39.309Z,101752.75
2022-10-18T22:14:06.172Z,101755.13
2022-10-18T22:16:32.868Z,101739.47
2022-10-18T22:19:01.993Z,101741.16
2022-10-18T22:21:29.119Z,101735.22
2022-10-18T22:23:57.337Z,101722.09
2022-10-18T22:26:27.660Z,101732.16
2022-10-18T22:29:00.243Z,101743.63
2022-10-18T22:31:39.195Z,101738.50
2022-10-18T22:34:29.806Z,101710.09
2022-10-18T22:36:56.776Z,101731.81
2022-10-18T22:39:24.789Z,101733.28
2022-10-18T22:41:55.820Z,101727.66
2022-10-18T22:44:23.072Z,101720.59
2022-10-18T22:46:49.681Z,101731.84
2022-10-18T22:49:16.360Z,101716.84
2022-10-18T22:51:43.203Z,101714.59
2022-10-18T22:54:10.276Z,101739.22
2022-10-18T22:56:36.949Z,101710.94
2022-10-18T22:59:09.688Z,101730.69
2022-10-18T23:01:36.496Z,101717.50
2022-10-18T23:04:03.254Z,101717.34
2022-10-18T23:06:32.931Z,101713.03
2022-10-18T23:09:02.429Z,101707.94
2022-10-18T23:11:29.517Z,101727.97
2022-10-18T23:13:56.250Z,101726.59
2022-10-18T23:16:25.809Z,101705.41
2022-10-18T23:18:55.266Z,101703.41
2022-10-18T23:21:24.346Z,101703.16
2022-10-18T23:23:53.005Z,101712.41
2022-10-18T23:26:22.657Z,101717.13
2022-10-18T23:28:50.793Z,101702.16
2022-10-18T23:31:21.541Z,101716.63
2022-10-18T23:33:51.041Z,101723.25
2022-10-18T23:36:18.331Z,101718.66
2022-10-18T23:38:45.264Z,101700.63
2022-10-18T23:41:13.615Z,101704.56
2022-10-18T23:43:40.731Z,101712.53
2022-10-18T23:46:07.891Z,101693.81
2022-10-18T23:48:37.947Z,101684.97
2022-10-18T23:51:05.333Z,101707.72
2022-10-18T23:53:32.351Z,101685.59
2022-10-18T23:56:07.502Z,101699.53
2022-10-18T23:58:35.213Z,101701.53
